Time;durP1;ratioP1;P1;durP2;ratioP2;P2;SDS_P1;SDS_P2;PMS_P1;PMS_P2;Temp;Humidity;BMP_temperature;BMP_pressure;BME280_temperature;BME280_humidity;BME280_pressure;Samples;Min_cycle;Max_cycle;Signal;HPM_P1;HPM_P2
2022/05/01 00:01:33;;;;;;;15.03;13.53;;;10.30;30.00;;;;;;5072070;28;20422;-76
2022/05/01 00:03:59;;;;;;;15.60;14.10;;;10.30;30.00;;;;;;5070571;28;20250;-74
2022/05/01 00:06:24;;;;;;;18.90;14.40;;;10.30;30.00;;;;;;5070730;28;21004;-74
2022/05/01 00:08:50;;;;;;;17.97;15.00;;;10.40;29.70;;;;;;5070586;28;20550;-74
2022/05/01 00:11:16;;;;;;;17.20;15.40;;;10.40;29.80;;;;;;5071937;28;20189;-76
2022/05/01 00:13:43;;;;;;;15.97;13.23;;;10.40;29.70;;;;;;5071885;28;20201;-74
2022/05/01 00:16:09;;;;;;;15.27;13.70;;;10.50;29.40;;;;;;5070506;28;20216;-74
2022/05/01 00:18:35;;;;;;;17.00;14.27;;;10.40;29.80;;;;;;5071742;28;20424;-74
2022/05/01 00:21:01;;;;;;;15.57;13.50;;;10.40;29.80;;;;;;5072232;28;20174;-74
2022/05/01 00:23:27;;;;;;;19.13;14.80;;;10.50;29.30;;;;;;5071871;28;20471;-75
2022/05/01 00:25:53;;;;;;;21.53;15.63;;;10.50;29.70;;;;;;5070697;28;20186;-74
2022/05/01 00:28:18;;;;;;;15.17;13.70;;;10.50;29.70;;;;;;5071562;28;20423;-75
2022/05/01 00:30:44;;;;;;;20.30;15.87;;;10.60;29.50;;;;;;5071874;28;20216;-76
2022/05/01 00:38:39;;;;;;;17.90;16.00;;;10.60;29.40;;;;;;5071709;28;20414;-76
2022/05/01 00:41:11;;;;;;;17.87;15.53;;;10.60;29.50;;;;;;5071522;28;20406;-77
2022/05/01 00:43:55;;;;;;;19.93;16.77;;;10.60;29.80;;;;;;5071544;28;20439;-76
2022/05/01 00:46:21;;;;;;;20.90;14.90;;;10.60;29.90;;;;;;5071533;28;20440;-77
2022/05/01 00:48:46;;;;;;;21.87;15.53;;;10.50;29.90;;;;;;5071398;28;20927;-74
2022/05/01 00:51:12;;;;;;;15.50;13.50;;;10.40;31.00;;;;;;5071603;28;20181;-74
2022/05/01 00:53:38;;;;;;;19.27;14.00;;;10.40;31.30;;;;;;5071581;28;20197;-74
2022/05/01 00:56:04;;;;;;;18.63;15.30;;;10.30;31.30;;;;;;5071533;28;20233;-74
2022/05/01 00:58:30;;;;;;;17.23;13.73;;;10.30;31.50;;;;;;5071365;28;20423;-74
2022/05/01 01:00:56;;;;;;;18.80;16.47;;;10.30;31.20;;;;;;5071480;28;20654;-74
2022/05/01 01:03:21;;;;;;;17.90;14.83;;;10.00;32.90;;;;;;5075388;28;20215;-74
2022/05/01 01:05:47;;;;;;;16.30;14.20;;;10.10;32.60;;;;;;5078000;28;20429;-77
2022/05/01 01:08:13;;;;;;;17.17;15.03;;;10.10;32.90;;;;;;5081246;28;20243;-76
2022/05/01 01:10:39;;;;;;;20.77;15.70;;;10.10;33.00;;;;;;5082953;28;20517;-77
2022/05/01 01:13:05;;;;;;;20.77;15.50;;;10.10;33.40;;;;;;5076013;28;20921;-74
2022/05/01 01:15:31;;;;;;;16.60;12.80;;;10.10;32.90;;;;;;5073779;28;20218;-74
2022/05/01 01:17:58;;;;;;;18.43;15.93;;;10.20;32.40;;;;;;5074816;28;20224;-74
2022/05/01 01:20:28;;;;;;;21.07;16.17;;;10.10;32.30;;;;;;5074984;28;20446;-74
2022/05/01 01:22:56;;;;;;;19.30;14.57;;;10.10;32.90;;;;;;5074910;28;20449;-74
2022/05/01 01:25:26;;;;;;;18.13;15.60;;;10.10;32.60;;;;;;5074972;28;20406;-77
2022/05/01 01:27:56;;;;;;;19.73;14.53;;;10.10;32.20;;;;;;5074821;28;20418;-75
2022/05/01 01:33:07;;;;;;;22.63;16.70;;;10.00;32.30;;;;;;5075023;28;20470;-75
2022/05/01 01:35:35;;;;;;;17.07;15.37;;;9.90;33.50;;;;;;5073426;28;20488;-74
2022/05/01 01:38:01;;;;;;;18.80;15.53;;;9.90;33.20;;;;;;5073363;28;20425;-74
2022/05/01 01:40:49;;;;;;;15.60;14.00;;;9.80;33.50;;;;;;5074626;28;20412;-74
2022/05/01 01:43:22;;;;;;;13.90;12.20;;;9.70;34.20;;;;;;5072969;28;20452;-74
2022/05/01 01:45:47;;;;;;;17.17;11.97;;;9.60;33.80;;;;;;5074626;28;20426;-74
2022/05/01 01:48:18;;;;;;;13.13;11.83;;;9.60;33.20;;;;;;5074944;28;20953;-74
2022/05/01 01:50:58;;;;;;;21.50;15.13;;;9.50;32.90;;;;;;5073423;28;20647;-73
2022/05/01 01:53:24;;;;;;;21.77;14.30;;;9.50;33.30;;;;;;5073037;28;20941;-73
2022/05/01 01:55:50;;;;;;;17.57;15.20;;;9.50;33.50;;;;;;5074241;28;20457;-73
2022/05/01 01:58:16;;;;;;;20.77;15.43;;;9.50;33.60;;;;;;5072845;28;20484;-73
2022/05/01 02:00:41;;;;;;;19.63;14.10;;;9.30;33.90;;;;;;5073037;28;20239;-73
2022/05/01 02:03:07;;;;;;;20.37;14.83;;;9.30;33.70;;;;;;5086987;22;20312;-68
2022/05/01 02:05:34;;;;;;;19.43;16.37;;;9.10;33.80;;;;;;5074283;28;20174;-67
2022/05/01 02:08:02;;;;;;;23.43;16.53;;;9.10;33.80;;;;;;5073784;28;20210;-67
2022/05/01 02:10:27;;;;;;;18.47;13.43;;;9.00;34.70;;;;;;5073987;28;20451;-67
2022/05/01 02:12:54;;;;;;;14.30;12.63;;;9.00;34.10;;;;;;5073954;28;20857;-68
2022/05/01 02:15:20;;;;;;;17.70;12.40;;;8.80;34.50;;;;;;5073725;28;20346;-68
2022/05/01 02:17:46;;;;;;;13.63;12.13;;;8.70;34.50;;;;;;5073811;28;20408;-67
2022/05/01 02:20:12;;;;;;;17.13;13.90;;;8.50;34.90;;;;;;5073162;28;20405;-67
2022/05/01 02:22:42;;;;;;;17.83;14.60;;;8.40;36.30;;;;;;5072508;28;20516;-68
2022/05/01 02:25:09;;;;;;;18.40;15.17;;;8.20;38.30;;;;;;5073836;28;20232;-68
2022/05/01 02:27:35;;;;;;;16.90;11.47;;;8.10;38.70;;;;;;5073523;28;20427;-67
2022/05/01 02:30:01;;;;;;;18.47;12.93;;;8.00;38.70;;;;;;5073760;28;20416;-68
2022/05/01 02:32:27;;;;;;;22.37;14.53;;;8.00;38.60;;;;;;5073763;28;20851;-68
2022/05/01 02:34:52;;;;;;;15.97;12.00;;;7.90;39.60;;;;;;5073668;28;20231;-68
2022/05/01 02:37:18;;;;;;;17.27;12.50;;;7.80;39.00;;;;;;5073335;28;20826;-69
2022/05/01 02:39:43;;;;;;;12.93;10.83;;;7.90;38.60;;;;;;5073512;28;20174;-66
2022/05/01 02:42:09;;;;;;;16.83;13.20;;;7.90;38.30;;;;;;5073516;28;20208;-68
2022/05/01 02:44:34;;;;;;;19.00;13.40;;;7.80;38.10;;;;;;5072129;28;20563;-68
2022/05/01 02:47:00;;;;;;;16.53;14.77;;;7.80;38.30;;;;;;5072061;28;20272;-68
2022/05/01 02:49:26;;;;;;;17.77;12.00;;;7.90;39.10;;;;;;5073119;28;20181;-68
2022/05/01 02:51:53;;;;;;;15.97;11.23;;;7.80;38.50;;;;;;5073232;28;20177;-68
2022/05/01 02:54:21;;;;;;;15.00;12.30;;;7.70;39.30;;;;;;5073149;28;20228;-68
2022/05/01 02:56:49;;;;;;;16.57;11.27;;;7.80;39.20;;;;;;5073165;28;20491;-68
2022/05/01 02:59:15;;;;;;;16.87;13.53;;;7.90;39.00;;;;;;5072931;28;20821;-69
2022/05/01 03:01:41;;;;;;;19.20;13.30;;;7.80;39.20;;;;;;5073205;28;20487;-69
2022/05/01 03:04:06;;;;;;;18.90;12.83;;;7.80;39.10;;;;;;5073464;28;20982;-67
2022/05/01 03:06:33;;;;;;;15.47;12.23;;;7.80;40.40;;;;;;5071673;28;20193;-66
2022/05/01 03:08:59;;;;;;;14.67;12.53;;;7.80;39.50;;;;;;5072643;28;20643;-67
2022/05/01 03:11:25;;;;;;;14.37;12.83;;;7.80;39.20;;;;;;5072928;28;20494;-68
2022/05/01 03:13:51;;;;;;;16.33;12.20;;;7.80;39.20;;;;;;5072734;28;20432;-67
2022/05/01 03:16:16;;;;;;;15.10;11.13;;;7.80;39.20;;;;;;5072730;28;20521;-67
2022/05/01 03:24:10;;;;;;;15.17;12.97;;;7.70;39.30;;;;;;5072567;28;20493;-67
2022/05/01 03:26:35;;;;;;;18.83;11.80;;;7.70;39.40;;;;;;5072525;28;20415;-68
2022/05/01 03:29:02;;;;;;;18.93;13.40;;;7.60;40.00;;;;;;5072335;28;20196;-67
2022/05/01 03:31:28;;;;;;;17.60;12.70;;;7.70;40.40;;;;;;5071470;28;20213;-67
2022/05/01 03:33:54;;;;;;;13.83;12.17;;;7.60;40.30;;;;;;5072427;28;20864;-67
2022/05/01 03:36:21;;;;;;;17.57;11.50;;;7.80;40.00;;;;;;5072319;28;20809;-67
2022/05/01 03:38:46;;;;;;;17.03;11.67;;;7.80;39.70;;;;;;5072146;28;20490;-68
2022/05/01 03:41:14;;;;;;;15.10;10.87;;;7.80;39.20;;;;;;5072269;28;20412;-67
2022/05/01 03:43:40;;;;;;;19.17;12.50;;;7.80;39.40;;;;;;5072207;28;20760;-68
2022/05/01 03:46:06;;;;;;;15.10;11.20;;;7.90;39.10;;;;;;5072195;28;20469;-67
2022/05/01 03:48:32;;;;;;;16.03;12.90;;;7.80;39.90;;;;;;5071990;28;20189;-67
2022/05/01 03:50:58;;;;;;;17.47;11.67;;;7.80;40.40;;;;;;5072271;28;20193;-67
2022/05/01 03:53:24;;;;;;;15.53;11.80;;;7.70;41.10;;;;;;5072144;28;20440;-68
2022/05/01 03:55:54;;;;;;;16.20;12.57;;;7.70;41.30;;;;;;5072080;28;21004;-68
2022/05/01 03:58:20;;;;;;;17.60;12.87;;;7.80;41.30;;;;;;5071937;28;20410;-68
2022/05/01 04:00:48;;;;;;;19.03;13.27;;;7.90;40.60;;;;;;5072092;28;20416;-67
2022/05/01 04:03:15;;;;;;;12.80;10.77;;;8.00;40.60;;;;;;5072137;28;20440;-68
2022/05/01 04:05:41;;;;;;;15.33;12.20;;;8.10;40.70;;;;;;5072141;28;20423;-68
2022/05/01 04:08:08;;;;;;;16.33;11.80;;;8.10;41.10;;;;;;5071842;28;20503;-68
2022/05/01 04:10:38;;;;;;;13.63;12.27;;;8.20;40.90;;;;;;5072086;28;20801;-69
2022/05/01 04:13:05;;;;;;;15.90;14.27;;;8.30;40.80;;;;;;5071940;28;20478;-69
2022/05/01 04:15:31;;;;;;;15.93;12.63;;;8.30;40.90;;;;;;5071822;28;20451;-69
2022/05/01 04:17:58;;;;;;;20.50;16.20;;;8.40;40.90;;;;;;5070326;28;20474;-68
2022/05/01 04:20:23;;;;;;;18.43;12.57;;;8.50;40.20;;;;;;5071952;28;20431;-68
2022/05/01 04:22:50;;;;;;;15.63;12.30;;;8.50;39.70;;;;;;5071790;28;20463;-67
2022/05/01 04:25:26;;;;;;;15.27;13.30;;;8.60;39.40;;;;;;5071837;28;20173;-68
2022/05/01 04:27:56;;;;;;;14.03;10.67;;;8.70;39.10;;;;;;5070308;28;20498;-68
2022/05/01 04:30:22;;;;;;;16.07;12.67;;;8.70;38.80;;;;;;5071754;28;20416;-68
2022/05/01 04:32:50;;;;;;;16.33;12.53;;;8.70;38.40;;;;;;5071985;28;20435;-69
2022/05/01 04:35:20;;;;;;;16.10;12.87;;;8.80;38.30;;;;;;5071977;28;20447;-69
2022/05/01 04:37:45;;;;;;;15.67;13.10;;;8.80;39.00;;;;;;5071745;28;20444;-68
2022/05/01 04:40:11;;;;;;;15.30;13.33;;;8.80;38.10;;;;;;5071702;28;20441;-69
2022/05/01 04:42:37;;;;;;;18.63;12.23;;;8.90;38.30;;;;;;5072877;28;20224;-69
2022/05/01 04:45:03;;;;;;;19.10;13.63;;;8.80;38.10;;;;;;5075815;28;20177;-69
2022/05/01 04:47:29;;;;;;;16.40;13.13;;;8.90;38.30;;;;;;5074222;28;20174;-70
2022/05/01 04:49:54;;;;;;;14.50;12.83;;;9.00;37.60;;;;;;5075651;28;20756;-67
2022/05/01 04:52:20;;;;;;;16.30;11.77;;;9.10;37.60;;;;;;5075443;28;20304;-68
2022/05/01 04:54:46;;;;;;;17.53;12.63;;;9.10;37.60;;;;;;5075490;28;20312;-69
2022/05/01 04:57:13;;;;;;;18.10;13.07;;;9.20;37.00;;;;;;5075346;28;20219;-68
2022/05/01 04:59:38;;;;;;;13.43;10.93;;;9.30;36.50;;;;;;5075698;28;20175;-68
2022/05/01 05:02:04;;;;;;;14.70;10.77;;;9.40;36.60;;;;;;5074820;28;20411;-68
2022/05/01 05:04:30;;;;;;;19.20;12.83;;;9.40;36.60;;;;;;5075681;28;20483;-68
2022/05/01 05:06:55;;;;;;;13.43;11.40;;;9.40;35.70;;;;;;5075771;28;20175;-68
2022/05/01 05:12:07;;;;;;;15.57;11.30;;;9.60;35.00;;;;;;5075902;28;20236;-68
2022/05/01 05:14:33;;;;;;;14.47;13.00;;;9.70;34.60;;;;;;5075143;28;20434;-69
2022/05/01 05:16:59;;;;;;;13.33;12.00;;;9.70;33.80;;;;;;5075207;28;20974;-68
2022/05/01 05:19:25;;;;;;;15.80;12.87;;;9.70;33.60;;;;;;5075073;28;20419;-68
2022/05/01 05:21:50;;;;;;;10.83;9.80;;;9.80;33.00;;;;;;5075356;28;20410;-69
2022/05/01 05:24:16;;;;;;;13.17;11.73;;;9.90;33.00;;;;;;5075053;28;20190;-68
2022/05/01 05:26:41;;;;;;;12.93;11.07;;;9.90;32.90;;;;;;5074047;28;20180;-68
2022/05/01 05:29:08;;;;;;;18.67;12.10;;;10.00;31.80;;;;;;5075101;28;20236;-69
2022/05/01 05:31:34;;;;;;;11.30;10.13;;;9.90;31.90;;;;;;5075041;28;20205;-68
2022/05/01 05:34:00;;;;;;;14.20;12.00;;;10.00;31.50;;;;;;5074872;28;20446;-68
2022/05/01 05:36:26;;;;;;;10.37;9.43;;;10.00;31.20;;;;;;5074708;28;20788;-67
2022/05/01 05:38:52;;;;;;;12.00;10.83;;;10.00;31.00;;;;;;5074440;28;20415;-68
2022/05/01 05:41:18;;;;;;;13.50;12.20;;;10.10;31.10;;;;;;5074962;28;20183;-68
2022/05/01 05:43:43;;;;;;;12.57;11.27;;;10.20;30.30;;;;;;5074759;28;20197;-68
2022/05/01 05:46:09;;;;;;;13.60;11.07;;;10.20;29.90;;;;;;5074812;28;20419;-68
2022/05/01 05:48:37;;;;;;;12.00;10.80;;;10.20;29.60;;;;;;5074649;28;20242;-68
2022/05/01 05:51:03;;;;;;;11.80;10.70;;;10.20;29.80;;;;;;5074878;28;20170;-68
2022/05/01 05:53:29;;;;;;;13.90;11.10;;;10.20;29.60;;;;;;5074019;28;20457;-68
2022/05/01 05:55:54;;;;;;;13.03;11.53;;;10.20;28.90;;;;;;5074073;28;20453;-68
2022/05/01 05:58:20;;;;;;;11.47;10.23;;;10.30;28.90;;;;;;5074324;28;20184;-68
2022/05/01 06:00:45;;;;;;;11.60;10.50;;;10.40;28.90;;;;;;5074797;28;20231;-68
2022/05/01 06:03:11;;;;;;;14.47;11.53;;;10.50;28.00;;;;;;5074420;28;20213;-68
2022/05/01 06:05:36;;;;;;;12.90;11.60;;;10.40;27.70;;;;;;5074394;28;20710;-68
2022/05/01 06:08:02;;;;;;;13.50;12.03;;;10.50;28.20;;;;;;5074168;28;20186;-68
2022/05/01 06:10:28;;;;;;;14.60;12.57;;;10.60;27.10;;;;;;5073008;28;20520;-69
2022/05/01 06:12:53;;;;;;;12.83;11.53;;;10.70;27.20;;;;;;5074100;28;20539;-67
2022/05/01 06:15:19;;;;;;;10.70;9.77;;;10.80;27.30;;;;;;5074162;28;20286;-68
2022/05/01 06:17:45;;;;;;;12.27;11.17;;;10.90;27.30;;;;;;5073892;28;20181;-68
2022/05/01 06:20:10;;;;;;;11.90;10.80;;;11.00;27.20;;;;;;5074051;28;20714;-69
2022/05/01 06:22:36;;;;;;;13.60;12.20;;;11.10;26.80;;;;;;5073771;28;20247;-68
2022/05/01 06:25:02;;;;;;;14.77;13.20;;;11.20;26.20;;;;;;5073819;28;20173;-67
2022/05/01 06:27:27;;;;;;;10.93;9.90;;;10.90;26.30;;;;;;5073500;28;20178;-68
2022/05/01 06:29:53;;;;;;;12.17;10.93;;;11.10;26.70;;;;;;5074066;28;20176;-69
2022/05/01 06:32:19;;;;;;;11.83;10.87;;;10.70;26.40;;;;;;5072573;28;20230;-68
2022/05/01 06:34:50;;;;;;;12.97;11.80;;;10.80;26.50;;;;;;5073759;28;20181;-69
2022/05/01 06:37:15;;;;;;;13.23;11.90;;;10.90;26.50;;;;;;5073646;28;20412;-68
2022/05/01 06:39:41;;;;;;;14.80;12.17;;;10.90;24.80;;;;;;5073829;28;20526;-69
2022/05/01 06:42:08;;;;;;;13.53;12.23;;;11.00;25.80;;;;;;5073825;28;20593;-67
2022/05/01 06:44:33;;;;;;;12.33;11.13;;;10.90;25.00;;;;;;5073880;28;20504;-68
2022/05/01 06:46:59;;;;;;;12.90;11.67;;;10.40;26.00;;;;;;5073565;28;20502;-69
2022/05/01 06:49:24;;;;;;;13.13;12.03;;;10.80;26.30;;;;;;5073109;28;20183;-68
2022/05/01 06:51:50;;;;;;;12.43;11.33;;;11.00;25.60;;;;;;5073468;28;20204;-68
2022/05/01 06:54:15;;;;;;;14.07;12.63;;;11.00;25.90;;;;;;5073556;28;20246;-69
2022/05/01 06:56:44;;;;;;;12.10;10.70;;;11.10;25.20;;;;;;5072093;28;20314;-69
2022/05/01 06:59:09;;;;;;;13.03;11.97;;;11.00;25.10;;;;;;5073216;28;20193;-68
2022/05/01 07:01:35;;;;;;;12.40;11.33;;;11.30;25.70;;;;;;5073209;28;20408;-69
2022/05/01 07:04:01;;;;;;;14.63;13.33;;;11.50;25.20;;;;;;5072929;28;20563;-69
2022/05/01 07:06:26;;;;;;;14.07;12.97;;;11.40;24.80;;;;;;5073351;28;20240;-69
2022/05/01 07:08:52;;;;;;;12.27;11.20;;;11.20;24.40;;;;;;5073209;28;20542;-69
2022/05/01 07:11:17;;;;;;;11.97;10.97;;;11.10;25.20;;;;;;5073094;28;20177;-69
2022/05/01 07:13:43;;;;;;;13.53;12.17;;;11.30;25.30;;;;;;5073163;28;20280;-69
2022/05/01 07:16:09;;;;;;;15.57;14.17;;;11.50;25.00;;;;;;5071950;28;20339;-69
2022/05/01 07:18:34;;;;;;;15.07;13.63;;;11.50;24.40;;;;;;5072633;28;20547;-69
2022/05/01 07:21:00;;;;;;;16.03;14.50;;;11.60;24.70;;;;;;5072833;28;20174;-68
2022/05/01 07:23:26;;;;;;;13.17;12.17;;;11.90;24.90;;;;;;5073403;28;20717;-69
2022/05/01 07:25:51;;;;;;;16.80;15.23;;;12.00;24.40;;;;;;5072928;28;20533;-67
2022/05/01 07:28:17;;;;;;;15.90;14.43;;;11.90;23.60;;;;;;5072489;28;20470;-66
2022/05/01 07:30:43;;;;;;;16.03;14.40;;;12.00;24.30;;;;;;5072607;28;20714;-68
2022/05/01 07:33:08;;;;;;;15.60;14.30;;;12.20;24.20;;;;;;5072836;28;20257;-68
2022/05/01 07:35:34;;;;;;;15.03;13.73;;;12.30;24.20;;;;;;5072665;28;20287;-68
2022/05/01 07:38:00;;;;;;;15.40;14.00;;;11.90;24.40;;;;;;5072573;28;20181;-67
2022/05/01 07:40:26;;;;;;;20.40;17.00;;;12.10;25.00;;;;;;5073112;28;20412;-68
2022/05/01 07:42:52;;;;;;;17.60;15.90;;;12.20;24.50;;;;;;5072940;28;20439;-68
2022/05/01 07:45:18;;;;;;;19.10;15.10;;;11.90;23.90;;;;;;5072950;28;20547;-68
2022/05/01 07:47:43;;;;;;;16.00;14.50;;;11.70;25.40;;;;;;5072556;28;20189;-68
2022/05/01 07:50:09;;;;;;;15.73;14.13;;;11.90;25.10;;;;;;5072846;28;20780;-68
2022/05/01 07:52:36;;;;;;;19.53;16.33;;;11.40;25.90;;;;;;5071218;28;20212;-68
2022/05/01 07:55:03;;;;;;;17.53;14.00;;;11.70;26.10;;;;;;5072693;28;20419;-68
2022/05/01 07:57:29;;;;;;;17.93;16.23;;;12.00;25.90;;;;;;5072359;28;20427;-69
2022/05/01 07:59:55;;;;;;;18.30;16.40;;;12.20;25.40;;;;;;5071171;28;20714;-69
2022/05/01 08:02:21;;;;;;;17.97;16.00;;;12.00;25.40;;;;;;5071906;28;20188;-69
2022/05/01 08:04:48;;;;;;;18.93;17.33;;;12.20;25.20;;;;;;5093917;22;20329;-71
2022/05/01 08:07:15;;;;;;;17.27;15.67;;;12.30;24.80;;;;;;5071828;28;20835;-74
2022/05/01 08:09:40;;;;;;;20.83;15.50;;;12.40;25.00;;;;;;5072249;28;20400;-72
2022/05/01 08:12:06;;;;;;;16.67;14.90;;;12.60;24.40;;;;;;5072063;28;20931;-72
2022/05/01 08:14:32;;;;;;;17.97;15.97;;;12.70;24.40;;;;;;5070824;28;20716;-72
2022/05/01 08:16:57;;;;;;;16.50;15.10;;;12.80;24.70;;;;;;5071728;28;20948;-71
2022/05/01 08:22:07;;;;;;;23.23;18.47;;;13.00;24.00;;;;;;5072780;28;20181;-71
2022/05/01 08:24:34;;;;;;;17.07;15.67;;;13.10;23.20;;;;;;5071934;28;20427;-71
2022/05/01 08:27:06;;;;;;;17.33;15.03;;;12.50;24.30;;;;;;5071929;28;20181;-71
2022/05/01 08:29:37;;;;;;;17.60;16.00;;;12.40;24.20;;;;;;5072122;28;20412;-72
2022/05/01 08:32:03;;;;;;;17.47;15.97;;;12.40;24.20;;;;;;5071958;28;20772;-72
2022/05/01 08:34:29;;;;;;;17.50;15.83;;;12.70;24.40;;;;;;5071929;28;20523;-72
2022/05/01 08:36:55;;;;;;;16.00;14.40;;;11.90;24.00;;;;;;5070692;28;20468;-72
2022/05/01 08:39:21;;;;;;;18.17;16.37;;;11.70;26.00;;;;;;5071690;28;20558;-71
2022/05/01 08:41:46;;;;;;;19.10;16.33;;;11.80;25.80;;;;;;5071036;28;20424;-71
2022/05/01 08:44:14;;;;;;;16.43;14.97;;;12.20;25.30;;;;;;5072495;28;20197;-71
2022/05/01 08:47:02;;;;;;;24.43;17.43;;;12.60;24.40;;;;;;5072220;28;20533;-72
2022/05/01 08:49:31;;;;;;;17.53;15.83;;;12.80;23.30;;;;;;5072024;28;20421;-71
2022/05/01 08:52:00;;;;;;;17.70;16.10;;;12.60;23.90;;;;;;5071836;28;20412;-72
2022/05/01 08:54:28;;;;;;;20.17;18.00;;;13.00;23.60;;;;;;5072635;28;20476;-71
2022/05/01 08:56:54;;;;;;;17.63;16.03;;;12.40;22.40;;;;;;5071554;28;20455;-72
2022/05/01 08:59:20;;;;;;;17.30;15.70;;;11.60;24.30;;;;;;5070387;28;20431;-71
2022/05/01 09:01:47;;;;;;;17.80;15.87;;;12.20;24.90;;;;;;5072058;28;20412;-71
2022/05/01 09:04:14;;;;;;;20.90;17.93;;;12.70;24.40;;;;;;5071571;28;20497;-71
2022/05/01 09:06:42;;;;;;;21.30;19.17;;;12.40;23.70;;;;;;5071682;28;20423;-72
2022/05/01 09:09:16;;;;;;;17.40;15.60;;;11.80;25.40;;;;;;5070252;28;20876;-72
2022/05/01 09:14:27;;;;;;;18.47;16.33;;;12.20;24.40;;;;;;5072081;28;20848;-72
2022/05/01 09:17:13;;;;;;;18.23;16.83;;;12.70;24.40;;;;;;5072081;28;20447;-73
2022/05/01 09:19:39;;;;;;;22.03;19.73;;;13.20;23.40;;;;;;5072205;28;20405;-72
2022/05/01 09:22:04;;;;;;;20.53;18.70;;;13.60;21.20;;;;;;5071899;28;20404;-71
2022/05/01 09:24:30;;;;;;;19.50;17.87;;;13.80;21.80;;;;;;5070617;28;20428;-72
2022/05/01 09:26:57;;;;;;;20.47;18.77;;;14.00;21.10;;;;;;5071896;28;20547;-71
2022/05/01 09:29:25;;;;;;;20.67;18.90;;;14.20;21.20;;;;;;5074050;28;20412;-72
2022/05/01 09:31:52;;;;;;;21.80;19.77;;;14.60;20.10;;;;;;5076531;28;20415;-72
2022/05/01 09:34:26;;;;;;;21.90;19.77;;;14.10;20.10;;;;;;5075504;28;20441;-72
2022/05/01 09:36:53;;;;;;;19.60;18.20;;;14.40;19.50;;;;;;5075501;28;20541;-73
2022/05/01 09:39:20;;;;;;;21.23;19.43;;;14.80;18.30;;;;;;5074635;28;20418;-73
2022/05/01 09:41:48;;;;;;;18.73;17.33;;;15.20;17.60;;;;;;5075492;28;20411;-73
2022/05/01 09:44:15;;;;;;;18.47;17.07;;;15.50;17.40;;;;;;5074908;28;20428;-72
2022/05/01 09:46:44;;;;;;;21.60;19.87;;;15.80;16.90;;;;;;5074819;28;20939;-73
2022/05/01 09:49:13;;;;;;;21.07;19.37;;;15.90;16.40;;;;;;5074380;28;20427;-72
2022/05/01 09:51:42;;;;;;;19.97;18.27;;;15.40;15.70;;;;;;5074806;28;20419;-72
2022/05/01 09:54:09;;;;;;;20.40;18.57;;;14.40;17.90;;;;;;5074518;28;20485;-72
2022/05/01 09:56:53;;;;;;;19.87;18.40;;;15.20;17.80;;;;;;5074586;28;20513;-72
2022/05/01 09:59:20;;;;;;;19.10;17.60;;;15.30;15.90;;;;;;5076647;28;20415;-72
2022/05/01 10:02:08;;;;;;;19.97;18.40;;;15.00;17.50;;;;;;5075086;28;20400;-73
2022/05/01 10:04:36;;;;;;;19.00;17.70;;;15.70;16.70;;;;;;5074528;28;20535;-73
2022/05/01 10:07:03;;;;;;;21.53;19.80;;;16.20;16.50;;;;;;5074199;28;20416;-71
2022/05/01 10:09:31;;;;;;;18.97;17.17;;;16.20;13.90;;;;;;5073963;28;20503;-72
2022/05/01 10:11:59;;;;;;;20.93;19.37;;;16.50;14.10;;;;;;5075115;28;20438;-72
2022/05/01 10:14:29;;;;;;;22.97;20.97;;;17.00;14.50;;;;;;5074347;28;20494;-73
2022/05/01 10:16:56;;;;;;;19.37;17.97;;;17.40;13.90;;;;;;5073950;28;20547;-73
2022/05/01 10:19:25;;;;;;;19.60;18.30;;;17.00;11.80;;;;;;5073633;28;20412;-73
2022/05/01 10:21:56;;;;;;;18.90;17.50;;;16.60;12.80;;;;;;5072673;28;20416;-72
2022/05/01 10:24:22;;;;;;;23.30;21.30;;;15.70;14.70;;;;;;5073953;28;20497;-72
2022/05/01 10:26:56;;;;;;;20.23;18.40;;;16.30;14.60;;;;;;5073783;28;20416;-72
2022/05/01 10:32:51;;;;;;;21.00;19.43;;;16.90;13.60;;;;;;5074091;28;20404;-72
2022/05/01 10:35:54;;;;;;;19.17;17.57;;;17.20;12.30;;;;;;5073837;28;20427;-72
2022/05/01 10:38:41;;;;;;;20.17;18.80;;;17.60;12.80;;;;;;5073656;28;20412;-73
2022/05/01 10:41:10;;;;;;;21.17;19.70;;;18.00;12.20;;;;;;5073254;28;20442;-72
2022/05/01 10:43:38;;;;;;;18.83;17.63;;;16.90;11.50;;;;;;5073316;28;20428;-73
2022/05/01 10:46:16;;;;;;;20.80;19.20;;;17.50;11.90;;;;;;5073391;28;20463;-72
2022/05/01 10:48:42;;;;;;;20.87;19.50;;;17.80;11.50;;;;;;5072903;28;20509;-72
2022/05/01 10:51:38;;;;;;;22.70;20.90;;;18.30;10.60;;;;;;5073182;28;20470;-72
2022/05/01 10:54:33;;;;;;;22.57;20.87;;;18.60;10.40;;;;;;5073336;28;20201;-72
2022/05/01 10:57:11;;;;;;;21.60;20.20;;;18.10;9.60;;;;;;5069877;28;20499;-72
2022/05/01 10:59:39;;;;;;;20.57;19.20;;;17.70;10.80;;;;;;5073457;28;20416;-72
2022/05/01 11:02:28;;;;;;;21.30;19.80;;;16.90;10.90;;;;;;5075196;28;20440;-72
2022/05/01 11:04:55;;;;;;;19.13;17.73;;;16.70;11.50;;;;;;5075261;28;20455;-72
2022/05/01 11:07:22;;;;;;;20.57;19.27;;;17.10;12.00;;;;;;5074881;28;20424;-72
2022/05/01 11:09:49;;;;;;;20.90;19.50;;;16.80;12.30;;;;;;5074330;28;20431;-72
2022/05/01 11:12:16;;;;;;;21.17;19.67;;;17.20;11.70;;;;;;5074860;28;20508;-73
2022/05/01 11:14:51;;;;;;;20.83;19.43;;;15.90;12.30;;;;;;5074718;28;20436;-71
2022/05/01 11:17:42;;;;;;;21.77;19.80;;;16.60;12.60;;;;;;5073370;28;20887;-72
2022/05/01 11:20:24;;;;;;;21.13;19.53;;;17.10;11.10;;;;;;5074813;28;20478;-72
2022/05/01 11:22:50;;;;;;;21.27;19.83;;;17.20;10.40;;;;;;5074794;28;20420;-73
2022/05/01 11:25:39;;;;;;;21.73;19.90;;;17.40;11.20;;;;;;5074683;28;20972;-72
2022/05/01 11:28:05;;;;;;;20.10;18.67;;;17.50;10.90;;;;;;5074189;28;20773;-72
2022/05/01 11:30:31;;;;;;;20.93;19.43;;;17.00;11.40;;;;;;5074782;28;20440;-72
2022/05/01 11:33:08;;;;;;;20.83;19.30;;;17.40;11.60;;;;;;5074136;28;20936;-72
2022/05/01 11:36:00;;;;;;;19.70;18.40;;;17.70;11.40;;;;;;5074621;28;20455;-73
2022/05/01 11:38:32;;;;;;;19.50;18.13;;;17.90;10.70;;;;;;5074423;28;20420;-73
2022/05/01 11:41:02;;;;;;;20.03;18.53;;;18.10;10.80;;;;;;5074790;28;20448;-73
2022/05/01 11:43:29;;;;;;;19.90;18.77;;;18.50;10.00;;;;;;5074612;28;20470;-72
2022/05/01 11:46:03;;;;;;;18.70;17.60;;;18.80;9.80;;;;;;5074605;28;20419;-72
2022/05/01 11:48:29;;;;;;;20.20;18.87;;;19.10;8.90;;;;;;5074666;28;20419;-72
2022/05/01 11:50:59;;;;;;;19.13;18.00;;;18.40;8.50;;;;;;5074838;28;20993;-72
2022/05/01 11:53:30;;;;;;;18.90;17.67;;;18.20;9.30;;;;;;5073801;28;20805;-72
2022/05/01 12:04:31;;;;;;;18.87;17.77;;;17.40;9.30;;;;;;5074202;28;20451;-73
2022/05/01 12:07:09;;;;;;;19.37;18.00;;;17.50;9.60;;;;;;5074314;28;20503;-74
2022/05/01 12:09:37;;;;;;;18.07;16.80;;;16.70;10.60;;;;;;5074325;28;20404;-73
2022/05/01 12:12:04;;;;;;;18.00;16.80;;;16.90;10.00;;;;;;5073301;28;20766;-72
2022/05/01 12:14:30;;;;;;;17.27;16.13;;;16.90;9.90;;;;;;5073154;28;20432;-70
2022/05/01 12:16:56;;;;;;;17.87;16.77;;;16.70;10.40;;;;;;5074151;28;20800;-70
2022/05/01 12:19:36;;;;;;;18.77;17.43;;;16.90;10.70;;;;;;5073962;28;20219;-70
2022/05/01 12:22:03;;;;;;;19.33;17.83;;;17.30;9.00;;;;;;5074277;28;20400;-71
2022/05/01 12:24:29;;;;;;;18.27;17.10;;;17.20;10.10;;;;;;5074733;28;20424;-70
2022/05/01 12:26:55;;;;;;;16.40;15.40;;;17.30;9.00;;;;;;5074126;28;20412;-73
2022/05/01 12:29:22;;;;;;;17.47;16.23;;;17.80;9.50;;;;;;5074303;28;20268;-73
2022/05/01 12:32:11;;;;;;;17.03;15.73;;;18.10;9.60;;;;;;5074417;28;20416;-70
2022/05/01 12:34:43;;;;;;;17.03;16.03;;;18.60;9.30;;;;;;5074376;28;20424;-70
2022/05/01 12:37:15;;;;;;;17.67;16.57;;;18.60;9.50;;;;;;5074263;28;20455;-70
2022/05/01 12:39:42;;;;;;;17.63;16.53;;;18.90;7.50;;;;;;5073556;28;20791;-71
2022/05/01 12:45:14;;;;;;;17.67;16.67;;;19.20;7.00;;;;;;5072030;28;21138;-71
2022/05/01 12:47:42;;;;;;;18.50;17.20;;;19.20;8.00;;;;;;5071261;28;20434;-70
2022/05/01 12:50:11;;;;;;;17.63;16.60;;;19.20;7.00;;;;;;5070006;28;20419;-71
2022/05/01 12:52:38;;;;;;;17.97;16.70;;;18.30;7.60;;;;;;5069962;28;20968;-72
2022/05/01 12:55:17;;;;;;;17.03;16.03;;;18.50;7.30;;;;;;5070144;28;20424;-71
2022/05/01 12:57:49;;;;;;;16.93;15.87;;;18.80;7.70;;;;;;5071441;28;20416;-72
2022/05/01 13:00:34;;;;;;;17.30;16.40;;;17.40;7.60;;;;;;5072118;28;20415;-72
2022/05/01 13:03:18;;;;;;;15.07;14.37;;;17.70;8.80;;;;;;5071641;28;20443;-72
2022/05/01 13:06:04;;;;;;;17.07;16.17;;;18.20;8.60;;;;;;5075131;28;20412;-72
2022/05/01 13:08:32;;;;;;;16.50;15.70;;;18.60;8.10;;;;;;5073726;28;20419;-71
2022/05/01 13:11:18;;;;;;;16.20;15.17;;;18.60;7.40;;;;;;5058922;28;20428;-68
2022/05/01 13:13:51;;;;;;;17.67;15.97;;;18.70;8.10;;;;;;5074928;28;20454;-68